sensor_id;sensor_type;location;lat;lon;timestamp;temperature;humidity
75091;DHT22;63674;48.048;8.306;2023-05-17T00:02:02;2.80;99.90
75091;DHT22;63674;48.048;8.306;2023-05-17T00:04:31;2.80;99.90
75091;DHT22;63674;48.048;8.306;2023-05-17T00:07:01;2.90;99.90
75091;DHT22;63674;48.048;8.306;2023-05-17T00:09:30;2.80;99.90
75091;DHT22;63674;48.048;8.306;2023-05-17T00:11:58;2.80;99.90
75091;DHT22;63674;48.048;8.306;2023-05-17T00:14:27;2.80;99.90
75091;DHT22;63674;48.048;8.306;2023-05-17T00:16:55;2.70;99.90
75091;DHT22;63674;48.048;8.306;2023-05-17T00:19:24;2.70;99.90
75091;DHT22;63674;48.048;8.306;2023-05-17T00:21:53;2.70;99.90
75091;DHT22;63674;48.048;8.306;2023-05-17T00:24:23;2.60;99.90
75091;DHT22;63674;48.048;8.306;2023-05-17T00:26:52;2.60;99.90
75091;DHT22;63674;48.048;8.306;2023-05-17T00:29:21;2.60;99.90
75091;DHT22;63674;48.048;8.306;2023-05-17T00:31:50;2.60;99.90
75091;DHT22;63674;48.048;8.306;2023-05-17T00:34:18;2.60;99.90
75091;DHT22;63674;48.048;8.306;2023-05-17T00:36:47;2.50;99.90
75091;DHT22;63674;48.048;8.306;2023-05-17T00:39:15;2.50;99.90
75091;DHT22;63674;48.048;8.306;2023-05-17T00:41:45;2.50;99.90
75091;DHT22;63674;48.048;8.306;2023-05-17T00:44:14;2.50;99.90
75091;DHT22;63674;48.048;8.306;2023-05-17T00:46:42;2.40;99.90
75091;DHT22;63674;48.048;8.306;2023-05-17T00:49:12;2.50;99.90
75091;DHT22;63674;48.048;8.306;2023-05-17T00:51:41;2.50;99.90
75091;DHT22;63674;48.048;8.306;2023-05-17T00:54:12;2.40;99.90
75091;DHT22;63674;48.048;8.306;2023-05-17T00:56:42;2.50;99.90
75091;DHT22;63674;48.048;8.306;2023-05-17T00:59:13;2.40;99.90
75091;DHT22;63674;48.048;8.306;2023-05-17T01:01:43;2.40;99.90
75091;DHT22;63674;48.048;8.306;2023-05-17T01:04:13;2.40;99.90
75091;DHT22;63674;48.048;8.306;2023-05-17T01:06:42;2.40;99.90
75091;DHT22;63674;48.048;8.306;2023-05-17T01:09:11;2.50;99.90
75091;DHT22;63674;48.048;8.306;2023-05-17T01:11:47;2.50;99.90
75091;DHT22;63674;48.048;8.306;2023-05-17T01:14:30;2.50;99.90
75091;DHT22;63674;48.048;8.306;2023-05-17T01:17:07;2.50;99.90
75091;DHT22;63674;48.048;8.306;2023-05-17T01:19:52;2.50;99.90
75091;DHT22;63674;48.048;8.306;2023-05-17T01:22:35;2.50;99.90
75091;DHT22;63674;48.048;8.306;2023-05-17T01:25:12;2.60;99.90
75091;DHT22;63674;48.048;8.306;2023-05-17T01:27:54;2.60;99.90
75091;DHT22;63674;48.048;8.306;2023-05-17T01:30:26;2.50;99.90
75091;DHT22;63674;48.048;8.306;2023-05-17T01:32:57;2.50;99.90
75091;DHT22;63674;48.048;8.306;2023-05-17T01:35:26;2.40;99.90
75091;DHT22;63674;48.048;8.306;2023-05-17T01:37:55;2.50;99.90
75091;DHT22;63674;48.048;8.306;2023-05-17T01:40:24;2.50;99.90
75091;DHT22;63674;48.048;8.306;2023-05-17T01:42:56;2.40;99.90
75091;DHT22;63674;48.048;8.306;2023-05-17T01:45:36;2.40;99.90
75091;DHT22;63674;48.048;8.306;2023-05-17T01:48:14;2.40;99.90
75091;DHT22;63674;48.048;8.306;2023-05-17T01:50:50;2.40;99.90
75091;DHT22;63674;48.048;8.306;2023-05-17T01:53:23;2.40;99.90
75091;DHT22;63674;48.048;8.306;2023-05-17T01:55:58;2.40;99.90
75091;DHT22;63674;48.048;8.306;2023-05-17T01:58:42;2.40;99.90
75091;DHT22;63674;48.048;8.306;2023-05-17T02:01:15;2.40;99.90
75091;DHT22;63674;48.048;8.306;2023-05-17T02:03:47;2.40;99.90
75091;DHT22;63674;48.048;8.306;2023-05-17T02:06:16;2.40;99.90
75091;DHT22;63674;48.048;8.306;2023-05-17T02:08:45;2.40;99.90
75091;DHT22;63674;48.048;8.306;2023-05-17T02:11:13;2.40;99.90
75091;DHT22;63674;48.048;8.306;2023-05-17T02:13:43;2.40;99.90
75091;DHT22;63674;48.048;8.306;2023-05-17T02:16:12;2.50;99.90
75091;DHT22;63674;48.048;8.306;2023-05-17T02:18:40;2.50;99.90
75091;DHT22;63674;48.048;8.306;2023-05-17T02:21:09;2.50;99.90
75091;DHT22;63674;48.048;8.306;2023-05-17T02:23:39;2.50;99.90
75091;DHT22;63674;48.048;8.306;2023-05-17T02:26:07;2.50;99.90
75091;DHT22;63674;48.048;8.306;2023-05-17T02:28:36;2.50;99.90
75091;DHT22;63674;48.048;8.306;2023-05-17T02:31:07;2.50;99.90
75091;DHT22;63674;48.048;8.306;2023-05-17T02:33:36;2.50;99.90
75091;DHT22;63674;48.048;8.306;2023-05-17T02:36:05;2.40;99.90
75091;DHT22;63674;48.048;8.306;2023-05-17T02:38:33;2.40;99.90
75091;DHT22;63674;48.048;8.306;2023-05-17T02:41:02;2.40;99.90
75091;DHT22;63674;48.048;8.306;2023-05-17T02:43:31;2.50;99.90
75091;DHT22;63674;48.048;8.306;2023-05-17T02:45:59;2.40;99.90
75091;DHT22;63674;48.048;8.306;2023-05-17T02:48:29;2.50;99.90
75091;DHT22;63674;48.048;8.306;2023-05-17T02:50:58;2.40;99.90
75091;DHT22;63674;48.048;8.306;2023-05-17T02:53:26;2.40;99.90
75091;DHT22;63674;48.048;8.306;2023-05-17T02:55:55;2.30;99.90
75091;DHT22;63674;48.048;8.306;2023-05-17T02:58:24;2.30;99.90
75091;DHT22;63674;48.048;8.306;2023-05-17T03:00:52;2.30;99.90
75091;DHT22;63674;48.048;8.306;2023-05-17T03:03:21;2.40;99.90
75091;DHT22;63674;48.048;8.306;2023-05-17T03:05:51;2.30;99.90
75091;DHT22;63674;48.048;8.306;2023-05-17T03:08:20;2.30;99.90
75091;DHT22;63674;48.048;8.306;2023-05-17T03:10:49;2.30;99.90
75091;DHT22;63674;48.048;8.306;2023-05-17T03:13:18;2.40;99.90
75091;DHT22;63674;48.048;8.306;2023-05-17T03:15:46;2.30;99.90
75091;DHT22;63674;48.048;8.306;2023-05-17T03:18:15;2.30;99.90
75091;DHT22;63674;48.048;8.306;2023-05-17T03:20:44;2.30;99.90
75091;DHT22;63674;48.048;8.306;2023-05-17T03:23:14;2.40;99.90
75091;DHT22;63674;48.048;8.306;2023-05-17T03:25:43;2.30;99.90
75091;DHT22;63674;48.048;8.306;2023-05-17T03:28:11;2.30;99.90
75091;DHT22;63674;48.048;8.306;2023-05-17T03:30:40;2.30;99.90
75091;DHT22;63674;48.048;8.306;2023-05-17T03:33:09;2.20;99.90
75091;DHT22;63674;48.048;8.306;2023-05-17T03:35:37;2.10;99.90
75091;DHT22;63674;48.048;8.306;2023-05-17T03:38:06;2.10;99.90
75091;DHT22;63674;48.048;8.306;2023-05-17T03:40:36;2.00;99.90
75091;DHT22;63674;48.048;8.306;2023-05-17T03:43:05;2.00;99.90
75091;DHT22;63674;48.048;8.306;2023-05-17T03:45:34;2.00;99.90
75091;DHT22;63674;48.048;8.306;2023-05-17T03:48:03;2.00;99.90
75091;DHT22;63674;48.048;8.306;2023-05-17T03:50:32;1.90;99.90
75091;DHT22;63674;48.048;8.306;2023-05-17T03:53:00;1.90;99.90
75091;DHT22;63674;48.048;8.306;2023-05-17T03:55:29;1.90;99.90
75091;DHT22;63674;48.048;8.306;2023-05-17T03:57:59;1.80;99.90
75091;DHT22;63674;48.048;8.306;2023-05-17T04:00:28;1.80;99.90
75091;DHT22;63674;48.048;8.306;2023-05-17T04:02:57;1.80;99.90
75091;DHT22;63674;48.048;8.306;2023-05-17T04:05:26;1.80;99.90
75091;DHT22;63674;48.048;8.306;2023-05-17T04:07:55;1.90;99.90
75091;DHT22;63674;48.048;8.306;2023-05-17T04:10:23;1.80;99.90
75091;DHT22;63674;48.048;8.306;2023-05-17T04:12:52;1.70;99.90
75091;DHT22;63674;48.048;8.306;2023-05-17T04:15:22;1.70;99.90
75091;DHT22;63674;48.048;8.306;2023-05-17T04:17:51;1.70;99.90
75091;DHT22;63674;48.048;8.306;2023-05-17T04:20:41;1.60;99.90
75091;DHT22;63674;48.048;8.306;2023-05-17T04:23:09;1.70;99.90
75091;DHT22;63674;48.048;8.306;2023-05-17T04:25:38;1.80;99.90
75091;DHT22;63674;48.048;8.306;2023-05-17T04:28:06;1.70;99.90
75091;DHT22;63674;48.048;8.306;2023-05-17T04:30:40;1.80;99.90
75091;DHT22;63674;48.048;8.306;2023-05-17T04:33:09;1.70;99.90
75091;DHT22;63674;48.048;8.306;2023-05-17T04:35:40;1.80;99.90
75091;DHT22;63674;48.048;8.306;2023-05-17T04:38:09;1.80;99.90
75091;DHT22;63674;48.048;8.306;2023-05-17T04:40:38;1.80;99.90
75091;DHT22;63674;48.048;8.306;2023-05-17T04:43:07;1.70;99.90
75091;DHT22;63674;48.048;8.306;2023-05-17T04:45:37;1.70;99.90
75091;DHT22;63674;48.048;8.306;2023-05-17T04:48:05;1.80;99.90
75091;DHT22;63674;48.048;8.306;2023-05-17T04:50:35;1.80;99.90
75091;DHT22;63674;48.048;8.306;2023-05-17T04:53:03;1.80;99.90
75091;DHT22;63674;48.048;8.306;2023-05-17T04:55:32;1.90;99.90
75091;DHT22;63674;48.048;8.306;2023-05-17T04:58:00;1.90;99.90
75091;DHT22;63674;48.048;8.306;2023-05-17T05:00:29;1.90;99.90
75091;DHT22;63674;48.048;8.306;2023-05-17T05:02:59;2.00;99.90
75091;DHT22;63674;48.048;8.306;2023-05-17T05:05:28;2.00;99.90
75091;DHT22;63674;48.048;8.306;2023-05-17T05:07:57;2.00;99.90
75091;DHT22;63674;48.048;8.306;2023-05-17T05:10:26;2.10;99.90
75091;DHT22;63674;48.048;8.306;2023-05-17T05:12:55;2.10;99.90
75091;DHT22;63674;48.048;8.306;2023-05-17T05:15:24;2.10;99.90
75091;DHT22;63674;48.048;8.306;2023-05-17T05:17:53;2.10;99.90
75091;DHT22;63674;48.048;8.306;2023-05-17T05:20:23;2.10;99.90
75091;DHT22;63674;48.048;8.306;2023-05-17T05:22:54;2.20;99.90
75091;DHT22;63674;48.048;8.306;2023-05-17T05:25:24;2.30;99.90
75091;DHT22;63674;48.048;8.306;2023-05-17T05:27:53;2.30;99.90
75091;DHT22;63674;48.048;8.306;2023-05-17T05:30:22;2.30;99.90
75091;DHT22;63674;48.048;8.306;2023-05-17T05:32:50;2.30;99.90
75091;DHT22;63674;48.048;8.306;2023-05-17T05:35:20;2.40;99.90
75091;DHT22;63674;48.048;8.306;2023-05-17T05:37:57;2.40;99.90
75091;DHT22;63674;48.048;8.306;2023-05-17T05:40:26;2.50;99.90
75091;DHT22;63674;48.048;8.306;2023-05-17T05:42:55;2.50;99.90
75091;DHT22;63674;48.048;8.306;2023-05-17T05:45:24;2.50;99.90
75091;DHT22;63674;48.048;8.306;2023-05-17T05:47:52;2.60;99.90
75091;DHT22;63674;48.048;8.306;2023-05-17T05:50:22;2.60;99.90
75091;DHT22;63674;48.048;8.306;2023-05-17T05:52:50;2.60;99.90
75091;DHT22;63674;48.048;8.306;2023-05-17T05:55:31;2.70;99.90
75091;DHT22;63674;48.048;8.306;2023-05-17T05:57:59;2.80;99.90
75091;DHT22;63674;48.048;8.306;2023-05-17T06:00:28;2.80;99.90
75091;DHT22;63674;48.048;8.306;2023-05-17T06:02:57;2.90;99.90
75091;DHT22;63674;48.048;8.306;2023-05-17T06:05:26;2.90;99.90
75091;DHT22;63674;48.048;8.306;2023-05-17T06:07:57;3.10;99.90
75091;DHT22;63674;48.048;8.306;2023-05-17T06:10:25;3.30;99.90
75091;DHT22;63674;48.048;8.306;2023-05-17T06:12:57;3.50;99.90
75091;DHT22;63674;48.048;8.306;2023-05-17T06:15:26;3.70;99.90
75091;DHT22;63674;48.048;8.306;2023-05-17T06:17:56;4.00;99.90
75091;DHT22;63674;48.048;8.306;2023-05-17T06:20:25;4.40;99.90
75091;DHT22;63674;48.048;8.306;2023-05-17T06:22:55;4.70;99.90
75091;DHT22;63674;48.048;8.306;2023-05-17T06:25:23;5.00;99.90
75091;DHT22;63674;48.048;8.306;2023-05-17T06:27:52;5.30;99.90
75091;DHT22;63674;48.048;8.306;2023-05-17T06:30:22;5.80;99.90
75091;DHT22;63674;48.048;8.306;2023-05-17T06:32:51;6.40;99.90
75091;DHT22;63674;48.048;8.306;2023-05-17T06:35:19;6.50;99.90
75091;DHT22;63674;48.048;8.306;2023-05-17T06:37:49;6.60;99.90
75091;DHT22;63674;48.048;8.306;2023-05-17T06:40:17;6.90;99.90
75091;DHT22;63674;48.048;8.306;2023-05-17T06:42:46;7.30;99.90
75091;DHT22;63674;48.048;8.306;2023-05-17T06:45:14;7.60;99.90
75091;DHT22;63674;48.048;8.306;2023-05-17T06:47:44;7.80;99.90
75091;DHT22;63674;48.048;8.306;2023-05-17T06:50:13;8.30;99.90
75091;DHT22;63674;48.048;8.306;2023-05-17T06:52:46;8.70;99.90
75091;DHT22;63674;48.048;8.306;2023-05-17T06:55:14;9.00;99.90
75091;DHT22;63674;48.048;8.306;2023-05-17T06:57:43;9.30;99.90
75091;DHT22;63674;48.048;8.306;2023-05-17T07:00:13;9.50;99.90
75091;DHT22;63674;48.048;8.306;2023-05-17T07:02:43;9.40;99.90
75091;DHT22;63674;48.048;8.306;2023-05-17T07:05:12;9.70;99.90
75091;DHT22;63674;48.048;8.306;2023-05-17T07:07:41;9.70;99.90
75091;DHT22;63674;48.048;8.306;2023-05-17T07:10:10;9.60;99.90
75091;DHT22;63674;48.048;8.306;2023-05-17T07:12:39;10.10;99.90
75091;DHT22;63674;48.048;8.306;2023-05-17T07:15:08;10.20;99.90
75091;DHT22;63674;48.048;8.306;2023-05-17T07:17:37;10.60;99.90
75091;DHT22;63674;48.048;8.306;2023-05-17T07:20:08;10.70;97.70
75091;DHT22;63674;48.048;8.306;2023-05-17T07:22:39;10.90;99.90
75091;DHT22;63674;48.048;8.306;2023-05-17T07:25:08;11.20;99.90
75091;DHT22;63674;48.048;8.306;2023-05-17T07:27:37;11.50;96.70
75091;DHT22;63674;48.048;8.306;2023-05-17T07:30:07;11.60;97.70
75091;DHT22;63674;48.048;8.306;2023-05-17T07:32:36;11.80;96.00
75091;DHT22;63674;48.048;8.306;2023-05-17T07:35:09;12.30;95.80
75091;DHT22;63674;48.048;8.306;2023-05-17T07:37:37;12.40;91.00
75091;DHT22;63674;48.048;8.306;2023-05-17T07:40:08;12.10;80.80
75091;DHT22;63674;48.048;8.306;2023-05-17T07:42:37;12.30;93.50
75091;DHT22;63674;48.048;8.306;2023-05-17T07:45:07;12.40;90.50
75091;DHT22;63674;48.048;8.306;2023-05-17T07:47:36;12.30;78.70
75091;DHT22;63674;48.048;8.306;2023-05-17T07:50:06;11.70;79.40
75091;DHT22;63674;48.048;8.306;2023-05-17T07:52:36;11.20;81.30
75091;DHT22;63674;48.048;8.306;2023-05-17T07:55:06;11.60;92.30
75091;DHT22;63674;48.048;8.306;2023-05-17T07:57:35;11.80;94.60
75091;DHT22;63674;48.048;8.306;2023-05-17T08:00:05;12.00;88.50
75091;DHT22;63674;48.048;8.306;2023-05-17T08:02:34;11.90;88.10
75091;DHT22;63674;48.048;8.306;2023-05-17T08:05:03;12.10;83.40
75091;DHT22;63674;48.048;8.306;2023-05-17T08:07:33;11.70;87.10
75091;DHT22;63674;48.048;8.306;2023-05-17T08:10:03;11.30;92.90
75091;DHT22;63674;48.048;8.306;2023-05-17T08:12:35;11.10;92.90
75091;DHT22;63674;48.048;8.306;2023-05-17T08:15:05;11.10;95.60
75091;DHT22;63674;48.048;8.306;2023-05-17T08:17:34;11.80;99.90
75091;DHT22;63674;48.048;8.306;2023-05-17T08:20:03;11.80;90.40
75091;DHT22;63674;48.048;8.306;2023-05-17T08:22:34;11.40;89.90
75091;DHT22;63674;48.048;8.306;2023-05-17T08:25:07;10.90;89.20
75091;DHT22;63674;48.048;8.306;2023-05-17T08:27:36;11.20;97.10
75091;DHT22;63674;48.048;8.306;2023-05-17T08:30:06;11.70;96.40
75091;DHT22;63674;48.048;8.306;2023-05-17T08:32:43;11.80;92.10
75091;DHT22;63674;48.048;8.306;2023-05-17T08:35:15;12.50;94.70
75091;DHT22;63674;48.048;8.306;2023-05-17T08:37:43;13.40;80.70
75091;DHT22;63674;48.048;8.306;2023-05-17T08:40:14;13.50;81.50
75091;DHT22;63674;48.048;8.306;2023-05-17T08:42:46;13.10;69.40
75091;DHT22;63674;48.048;8.306;2023-05-17T08:45:16;12.90;87.50
75091;DHT22;63674;48.048;8.306;2023-05-17T08:47:45;13.30;89.00
75091;DHT22;63674;48.048;8.306;2023-05-17T08:50:15;13.30;74.60
75091;DHT22;63674;48.048;8.306;2023-05-17T08:52:44;13.10;75.80
75091;DHT22;63674;48.048;8.306;2023-05-17T08:55:14;12.80;78.70
75091;DHT22;63674;48.048;8.306;2023-05-17T08:57:44;12.10;83.30
75091;DHT22;63674;48.048;8.306;2023-05-17T09:00:15;11.60;81.40
75091;DHT22;63674;48.048;8.306;2023-05-17T09:02:47;11.10;90.00
75091;DHT22;63674;48.048;8.306;2023-05-17T09:05:16;10.80;91.20
75091;DHT22;63674;48.048;8.306;2023-05-17T09:07:47;10.60;93.20
75091;DHT22;63674;48.048;8.306;2023-05-17T09:10:18;10.50;93.30
75091;DHT22;63674;48.048;8.306;2023-05-17T09:12:47;10.40;91.80
75091;DHT22;63674;48.048;8.306;2023-05-17T09:15:17;10.20;94.30
75091;DHT22;63674;48.048;8.306;2023-05-17T09:17:51;10.20;95.10
75091;DHT22;63674;48.048;8.306;2023-05-17T09:20:21;10.50;96.00
75091;DHT22;63674;48.048;8.306;2023-05-17T09:22:51;10.60;95.30
75091;DHT22;63674;48.048;8.306;2023-05-17T09:25:23;10.40;90.60
75091;DHT22;63674;48.048;8.306;2023-05-17T09:27:52;10.50;94.90
75091;DHT22;63674;48.048;8.306;2023-05-17T09:30:26;10.40;94.40
75091;DHT22;63674;48.048;8.306;2023-05-17T09:32:56;10.20;95.70
75091;DHT22;63674;48.048;8.306;2023-05-17T09:35:28;10.30;99.90
75091;DHT22;63674;48.048;8.306;2023-05-17T09:38:05;10.30;94.30
75091;DHT22;63674;48.048;8.306;2023-05-17T09:40:39;10.20;95.80
75091;DHT22;63674;48.048;8.306;2023-05-17T09:43:09;10.10;94.20
75091;DHT22;63674;48.048;8.306;2023-05-17T09:45:38;10.00;96.70
75091;DHT22;63674;48.048;8.306;2023-05-17T09:48:11;9.90;94.30
75091;DHT22;63674;48.048;8.306;2023-05-17T09:50:44;10.10;96.80
75091;DHT22;63674;48.048;8.306;2023-05-17T09:53:27;10.30;96.50
75091;DHT22;63674;48.048;8.306;2023-05-17T09:55:59;10.70;98.40
75091;DHT22;63674;48.048;8.306;2023-05-17T09:58:31;10.80;93.00
75091;DHT22;63674;48.048;8.306;2023-05-17T10:01:01;10.90;90.20
75091;DHT22;63674;48.048;8.306;2023-05-17T10:03:33;10.80;92.80
75091;DHT22;63674;48.048;8.306;2023-05-17T10:06:05;11.70;94.90
75091;DHT22;63674;48.048;8.306;2023-05-17T10:08:43;12.10;94.30
75091;DHT22;63674;48.048;8.306;2023-05-17T10:11:17;11.90;87.50
75091;DHT22;63674;48.048;8.306;2023-05-17T10:13:57;12.00;88.70
75091;DHT22;63674;48.048;8.306;2023-05-17T10:16:32;11.80;86.70
75091;DHT22;63674;48.048;8.306;2023-05-17T10:19:02;11.90;90.00
75091;DHT22;63674;48.048;8.306;2023-05-17T10:21:31;12.00;71.90
75091;DHT22;63674;48.048;8.306;2023-05-17T10:24:01;12.20;82.50
75091;DHT22;63674;48.048;8.306;2023-05-17T10:26:32;12.70;91.90
75091;DHT22;63674;48.048;8.306;2023-05-17T10:29:02;13.20;84.80
75091;DHT22;63674;48.048;8.306;2023-05-17T10:31:33;13.70;87.90
75091;DHT22;63674;48.048;8.306;2023-05-17T10:34:03;13.90;84.20
75091;DHT22;63674;48.048;8.306;2023-05-17T10:36:33;14.00;72.90
75091;DHT22;63674;48.048;8.306;2023-05-17T10:39:05;13.40;77.20
75091;DHT22;63674;48.048;8.306;2023-05-17T10:41:39;13.40;84.00
75091;DHT22;63674;48.048;8.306;2023-05-17T10:44:13;13.10;81.40
75091;DHT22;63674;48.048;8.306;2023-05-17T10:46:50;12.40;84.60
75091;DHT22;63674;48.048;8.306;2023-05-17T10:49:21;12.00;82.60
75091;DHT22;63674;48.048;8.306;2023-05-17T10:51:51;11.90;82.80
75091;DHT22;63674;48.048;8.306;2023-05-17T10:54:20;11.60;79.30
75091;DHT22;63674;48.048;8.306;2023-05-17T10:57:04;11.50;85.60
75091;DHT22;63674;48.048;8.306;2023-05-17T10:59:35;11.10;86.30
75091;DHT22;63674;48.048;8.306;2023-05-17T11:02:04;11.10;90.60
75091;DHT22;63674;48.048;8.306;2023-05-17T11:04:35;11.30;88.50
75091;DHT22;63674;48.048;8.306;2023-05-17T11:07:25;11.60;92.60
75091;DHT22;63674;48.048;8.306;2023-05-17T11:10:03;11.80;89.50
75091;DHT22;63674;48.048;8.306;2023-05-17T11:12:39;11.60;73.10
75091;DHT22;63674;48.048;8.306;2023-05-17T11:15:10;12.00;90.10
75091;DHT22;63674;48.048;8.306;2023-05-17T11:17:50;12.20;82.20
75091;DHT22;63674;48.048;8.306;2023-05-17T11:20:30;12.40;92.60
75091;DHT22;63674;48.048;8.306;2023-05-17T11:23:03;12.90;83.80
75091;DHT22;63674;48.048;8.306;2023-05-17T11:25:34;13.10;70.80
75091;DHT22;63674;48.048;8.306;2023-05-17T11:28:16;13.00;79.60
75091;DHT22;63674;48.048;8.306;2023-05-17T11:30:45;12.60;75.70
75091;DHT22;63674;48.048;8.306;2023-05-17T11:33:18;12.20;82.20
75091;DHT22;63674;48.048;8.306;2023-05-17T11:36:04;12.20;82.60
75091;DHT22;63674;48.048;8.306;2023-05-17T11:38:34;11.80;76.80
75091;DHT22;63674;48.048;8.306;2023-05-17T11:41:16;11.70;87.10
75091;DHT22;63674;48.048;8.306;2023-05-17T11:43:52;11.60;85.10
75091;DHT22;63674;48.048;8.306;2023-05-17T11:46:22;11.60;89.60
75091;DHT22;63674;48.048;8.306;2023-05-17T11:48:52;11.50;89.40
75091;DHT22;63674;48.048;8.306;2023-05-17T11:51:21;11.50;82.90
75091;DHT22;63674;48.048;8.306;2023-05-17T11:53:53;11.70;91.00
75091;DHT22;63674;48.048;8.306;2023-05-17T11:56:22;11.90;84.20
75091;DHT22;63674;48.048;8.306;2023-05-17T11:59:09;11.90;85.00
75091;DHT22;63674;48.048;8.306;2023-05-17T12:01:42;12.20;92.00
75091;DHT22;63674;48.048;8.306;2023-05-17T12:04:12;12.40;80.40
75091;DHT22;63674;48.048;8.306;2023-05-17T12:06:40;12.50;81.50
75091;DHT22;63674;48.048;8.306;2023-05-17T12:09:09;12.20;81.80
75091;DHT22;63674;48.048;8.306;2023-05-17T12:11:40;12.30;90.60
75091;DHT22;63674;48.048;8.306;2023-05-17T12:14:14;12.30;79.90
75091;DHT22;63674;48.048;8.306;2023-05-17T12:16:47;11.90;78.00
75091;DHT22;63674;48.048;8.306;2023-05-17T12:19:20;11.50;80.90
75091;DHT22;63674;48.048;8.306;2023-05-17T12:21:50;11.90;91.00
75091;DHT22;63674;48.048;8.306;2023-05-17T12:24:18;12.50;96.60
75091;DHT22;63674;48.048;8.306;2023-05-17T12:26:47;13.00;88.40
75091;DHT22;63674;48.048;8.306;2023-05-17T12:29:18;13.30;84.90
75091;DHT22;63674;48.048;8.306;2023-05-17T12:31:50;13.20;77.10
75091;DHT22;63674;48.048;8.306;2023-05-17T12:34:20;12.50;69.10
75091;DHT22;63674;48.048;8.306;2023-05-17T12:36:49;12.10;78.10
75091;DHT22;63674;48.048;8.306;2023-05-17T12:39:19;12.20;85.70
75091;DHT22;63674;48.048;8.306;2023-05-17T12:41:50;12.20;72.70
75091;DHT22;63674;48.048;8.306;2023-05-17T12:44:21;11.90;79.10
75091;DHT22;63674;48.048;8.306;2023-05-17T12:46:50;12.40;90.20
75091;DHT22;63674;48.048;8.306;2023-05-17T12:49:20;12.80;85.90
75091;DHT22;63674;48.048;8.306;2023-05-17T12:51:49;12.50;77.10
75091;DHT22;63674;48.048;8.306;2023-05-17T12:54:27;12.30;78.60
75091;DHT22;63674;48.048;8.306;2023-05-17T12:56:56;12.20;83.20
75091;DHT22;63674;48.048;8.306;2023-05-17T12:59:26;12.60;79.80
75091;DHT22;63674;48.048;8.306;2023-05-17T13:01:56;12.40;79.30
75091;DHT22;63674;48.048;8.306;2023-05-17T13:04:31;12.20;73.90
75091;DHT22;63674;48.048;8.306;2023-05-17T13:07:03;11.90;76.90
75091;DHT22;63674;48.048;8.306;2023-05-17T13:09:33;12.30;81.70
75091;DHT22;63674;48.048;8.306;2023-05-17T13:12:05;12.60;87.70
75091;DHT22;63674;48.048;8.306;2023-05-17T13:14:40;12.70;77.20
75091;DHT22;63674;48.048;8.306;2023-05-17T13:17:16;12.60;77.50
75091;DHT22;63674;48.048;8.306;2023-05-17T13:19:47;12.80;82.50
75091;DHT22;63674;48.048;8.306;2023-05-17T13:22:16;13.00;77.60
75091;DHT22;63674;48.048;8.306;2023-05-17T13:24:44;13.00;76.40
75091;DHT22;63674;48.048;8.306;2023-05-17T13:27:13;12.80;76.40
75091;DHT22;63674;48.048;8.306;2023-05-17T13:29:45;12.70;80.30
75091;DHT22;63674;48.048;8.306;2023-05-17T13:32:13;12.60;78.10
75091;DHT22;63674;48.048;8.306;2023-05-17T13:34:42;12.60;76.40
75091;DHT22;63674;48.048;8.306;2023-05-17T13:37:11;12.80;87.10
75091;DHT22;63674;48.048;8.306;2023-05-17T13:39:40;13.10;74.00
75091;DHT22;63674;48.048;8.306;2023-05-17T13:42:08;13.00;73.20
75091;DHT22;63674;48.048;8.306;2023-05-17T13:44:37;13.10;78.30
75091;DHT22;63674;48.048;8.306;2023-05-17T13:47:08;13.20;76.20
75091;DHT22;63674;48.048;8.306;2023-05-17T13:49:36;13.30;79.50
75091;DHT22;63674;48.048;8.306;2023-05-17T13:52:05;13.50;76.20
75091;DHT22;63674;48.048;8.306;2023-05-17T13:54:36;13.60;77.60
75091;DHT22;63674;48.048;8.306;2023-05-17T13:57:05;13.40;75.30
75091;DHT22;63674;48.048;8.306;2023-05-17T13:59:34;13.00;73.10
75091;DHT22;63674;48.048;8.306;2023-05-17T14:02:03;12.70;79.00
75091;DHT22;63674;48.048;8.306;2023-05-17T14:04:33;12.50;80.60
75091;DHT22;63674;48.048;8.306;2023-05-17T14:07:02;12.50;86.60
75091;DHT22;63674;48.048;8.306;2023-05-17T14:09:31;12.60;74.50
75091;DHT22;63674;48.048;8.306;2023-05-17T14:12:00;12.50;76.10
75091;DHT22;63674;48.048;8.306;2023-05-17T14:14:29;12.40;75.20
75091;DHT22;63674;48.048;8.306;2023-05-17T14:16:58;12.60;89.80
75091;DHT22;63674;48.048;8.306;2023-05-17T14:19:27;12.90;83.20
75091;DHT22;63674;48.048;8.306;2023-05-17T14:21:58;13.10;76.70
75091;DHT22;63674;48.048;8.306;2023-05-17T14:24:26;13.00;74.90
75091;DHT22;63674;48.048;8.306;2023-05-17T14:26:55;12.30;75.70
75091;DHT22;63674;48.048;8.306;2023-05-17T14:29:24;12.20;77.60
75091;DHT22;63674;48.048;8.306;2023-05-17T14:31:53;12.20;77.10
75091;DHT22;63674;48.048;8.306;2023-05-17T14:34:21;12.20;73.50
75091;DHT22;63674;48.048;8.306;2023-05-17T14:36:50;12.10;78.70
75091;DHT22;63674;48.048;8.306;2023-05-17T14:39:21;12.20;90.40
75091;DHT22;63674;48.048;8.306;2023-05-17T14:41:50;12.30;85.70
75091;DHT22;63674;48.048;8.306;2023-05-17T14:44:19;12.30;83.50
75091;DHT22;63674;48.048;8.306;2023-05-17T14:46:47;12.20;83.50
75091;DHT22;63674;48.048;8.306;2023-05-17T14:49:16;12.20;86.30
75091;DHT22;63674;48.048;8.306;2023-05-17T14:51:44;12.20;90.30
75091;DHT22;63674;48.048;8.306;2023-05-17T14:54:13;12.20;76.10
75091;DHT22;63674;48.048;8.306;2023-05-17T14:56:44;12.10;90.00
75091;DHT22;63674;48.048;8.306;2023-05-17T14:59:13;12.30;87.80
75091;DHT22;63674;48.048;8.306;2023-05-17T15:01:42;12.30;83.80
75091;DHT22;63674;48.048;8.306;2023-05-17T15:04:10;12.30;89.50
75091;DHT22;63674;48.048;8.306;2023-05-17T15:06:40;12.40;90.00
75091;DHT22;63674;48.048;8.306;2023-05-17T15:09:08;12.60;83.70
75091;DHT22;63674;48.048;8.306;2023-05-17T15:11:39;12.60;87.30
75091;DHT22;63674;48.048;8.306;2023-05-17T15:14:09;12.70;88.60
75091;DHT22;63674;48.048;8.306;2023-05-17T15:16:38;12.70;79.10
75091;DHT22;63674;48.048;8.306;2023-05-17T15:19:06;12.50;81.90
75091;DHT22;63674;48.048;8.306;2023-05-17T15:21:35;12.30;80.10
75091;DHT22;63674;48.048;8.306;2023-05-17T15:24:05;12.30;85.50
75091;DHT22;63674;48.048;8.306;2023-05-17T15:26:34;12.30;87.50
75091;DHT22;63674;48.048;8.306;2023-05-17T15:29:02;12.40;90.30
75091;DHT22;63674;48.048;8.306;2023-05-17T15:31:32;12.50;88.00
75091;DHT22;63674;48.048;8.306;2023-05-17T15:34:01;12.30;76.10
75091;DHT22;63674;48.048;8.306;2023-05-17T15:36:30;12.00;75.50
75091;DHT22;63674;48.048;8.306;2023-05-17T15:39:00;11.60;83.10
75091;DHT22;63674;48.048;8.306;2023-05-17T15:41:30;11.60;91.40
75091;DHT22;63674;48.048;8.306;2023-05-17T15:43:59;11.60;82.60
75091;DHT22;63674;48.048;8.306;2023-05-17T15:46:27;11.40;82.10
75091;DHT22;63674;48.048;8.306;2023-05-17T15:48:57;11.10;90.30
75091;DHT22;63674;48.048;8.306;2023-05-17T15:51:26;11.20;90.10
75091;DHT22;63674;48.048;8.306;2023-05-17T15:53:55;11.30;92.10
75091;DHT22;63674;48.048;8.306;2023-05-17T15:56:23;11.20;87.90
75091;DHT22;63674;48.048;8.306;2023-05-17T15:58:53;11.30;94.50